sensor_id;sensor_type;location;lat;lon;timestamp;temperature;humidity
57390;DHT22;43217;52.694;6.214;2023-02-28T00:00:47;3.60;99.90
57390;DHT22;43217;52.694;6.214;2023-02-28T00:03:13;3.60;99.90
57390;DHT22;43217;52.694;6.214;2023-02-28T00:05:39;3.60;99.90
57390;DHT22;43217;52.694;6.214;2023-02-28T00:08:04;3.60;99.90
57390;DHT22;43217;52.694;6.214;2023-02-28T00:10:31;3.60;99.90
57390;DHT22;43217;52.694;6.214;2023-02-28T00:13:01;3.60;99.90
57390;DHT22;43217;52.694;6.214;2023-02-28T00:15:27;3.60;99.90
57390;DHT22;43217;52.694;6.214;2023-02-28T00:17:52;3.60;99.90
57390;DHT22;43217;52.694;6.214;2023-02-28T00:20:18;3.70;99.90
57390;DHT22;43217;52.694;6.214;2023-02-28T00:22:46;3.70;99.90
57390;DHT22;43217;52.694;6.214;2023-02-28T00:25:15;3.70;99.90
57390;DHT22;43217;52.694;6.214;2023-02-28T00:27:41;3.60;99.90
57390;DHT22;43217;52.694;6.214;2023-02-28T00:30:14;3.70;99.90
57390;DHT22;43217;52.694;6.214;2023-02-28T00:32:40;3.70;99.90
57390;DHT22;43217;52.694;6.214;2023-02-28T00:35:07;3.70;99.90
57390;DHT22;43217;52.694;6.214;2023-02-28T00:37:33;3.70;99.90
57390;DHT22;43217;52.694;6.214;2023-02-28T00:39:58;3.70;99.90
57390;DHT22;43217;52.694;6.214;2023-02-28T00:42:24;3.70;99.90
57390;DHT22;43217;52.694;6.214;2023-02-28T00:44:50;3.70;99.90
57390;DHT22;43217;52.694;6.214;2023-02-28T00:47:16;3.70;99.90
57390;DHT22;43217;52.694;6.214;2023-02-28T00:49:42;3.80;99.90
57390;DHT22;43217;52.694;6.214;2023-02-28T00:52:07;3.80;99.90
57390;DHT22;43217;52.694;6.214;2023-02-28T00:54:33;3.70;99.90
57390;DHT22;43217;52.694;6.214;2023-02-28T00:56:59;3.80;99.90
57390;DHT22;43217;52.694;6.214;2023-02-28T00:59:25;3.80;99.90
57390;DHT22;43217;52.694;6.214;2023-02-28T01:01:51;3.80;99.90
57390;DHT22;43217;52.694;6.214;2023-02-28T01:04:16;3.80;99.90
57390;DHT22;43217;52.694;6.214;2023-02-28T01:06:42;3.70;99.90
57390;DHT22;43217;52.694;6.214;2023-02-28T01:09:08;3.80;99.90
57390;DHT22;43217;52.694;6.214;2023-02-28T01:11:34;3.80;99.90
57390;DHT22;43217;52.694;6.214;2023-02-28T01:14:01;3.80;99.90
57390;DHT22;43217;52.694;6.214;2023-02-28T01:16:27;3.80;99.90
57390;DHT22;43217;52.694;6.214;2023-02-28T01:18:53;3.80;99.90
57390;DHT22;43217;52.694;6.214;2023-02-28T01:21:20;3.80;99.90
57390;DHT22;43217;52.694;6.214;2023-02-28T01:23:46;3.80;99.90
57390;DHT22;43217;52.694;6.214;2023-02-28T01:26:16;3.80;99.90
57390;DHT22;43217;52.694;6.214;2023-02-28T01:28:42;3.80;99.90
57390;DHT22;43217;52.694;6.214;2023-02-28T01:31:08;3.80;99.90
57390;DHT22;43217;52.694;6.214;2023-02-28T01:33:34;3.80;99.90
57390;DHT22;43217;52.694;6.214;2023-02-28T01:36:02;3.80;99.90
57390;DHT22;43217;52.694;6.214;2023-02-28T01:38:29;3.90;99.90
57390;DHT22;43217;52.694;6.214;2023-02-28T01:40:54;3.80;99.90
57390;DHT22;43217;52.694;6.214;2023-02-28T01:43:27;3.90;99.90
57390;DHT22;43217;52.694;6.214;2023-02-28T01:45:54;3.90;99.90
57390;DHT22;43217;52.694;6.214;2023-02-28T01:48:24;3.90;99.90
57390;DHT22;43217;52.694;6.214;2023-02-28T01:50:52;3.90;99.90
57390;DHT22;43217;52.694;6.214;2023-02-28T01:53:22;3.90;99.90
57390;DHT22;43217;52.694;6.214;2023-02-28T01:55:51;3.90;99.90
57390;DHT22;43217;52.694;6.214;2023-02-28T01:58:18;3.80;99.90
57390;DHT22;43217;52.694;6.214;2023-02-28T02:00:44;3.90;99.90
57390;DHT22;43217;52.694;6.214;2023-02-28T02:03:13;3.90;99.90
57390;DHT22;43217;52.694;6.214;2023-02-28T02:05:40;3.90;99.90
57390;DHT22;43217;52.694;6.214;2023-02-28T02:08:17;3.90;99.90
57390;DHT22;43217;52.694;6.214;2023-02-28T02:10:45;3.90;99.90
57390;DHT22;43217;52.694;6.214;2023-02-28T02:18:56;3.90;99.90
57390;DHT22;43217;52.694;6.214;2023-02-28T02:36:38;3.80;99.90
57390;DHT22;43217;52.694;6.214;2023-02-28T02:41:59;3.80;99.90
57390;DHT22;43217;52.694;6.214;2023-02-28T02:44:35;3.80;99.90
57390;DHT22;43217;52.694;6.214;2023-02-28T02:47:24;3.80;99.90
57390;DHT22;43217;52.694;6.214;2023-02-28T02:49:57;3.70;99.90
57390;DHT22;43217;52.694;6.214;2023-02-28T02:52:32;3.70;99.90
57390;DHT22;43217;52.694;6.214;2023-02-28T02:55:02;3.70;99.90
57390;DHT22;43217;52.694;6.214;2023-02-28T02:57:45;3.70;99.90
57390;DHT22;43217;52.694;6.214;2023-02-28T03:00:14;3.70;99.90
57390;DHT22;43217;52.694;6.214;2023-02-28T03:02:42;3.60;99.90
57390;DHT22;43217;52.694;6.214;2023-02-28T03:05:17;3.60;99.90
57390;DHT22;43217;52.694;6.214;2023-02-28T03:07:44;3.60;99.90
57390;DHT22;43217;52.694;6.214;2023-02-28T03:10:45;3.60;99.90
57390;DHT22;43217;52.694;6.214;2023-02-28T03:16:21;3.60;99.90
57390;DHT22;43217;52.694;6.214;2023-02-28T03:19:13;3.60;99.90
57390;DHT22;43217;52.694;6.214;2023-02-28T03:22:23;3.60;99.90
57390;DHT22;43217;52.694;6.214;2023-02-28T03:24:45;3.50;99.90
57390;DHT22;43217;52.694;6.214;2023-02-28T03:27:11;3.50;99.90
57390;DHT22;43217;52.694;6.214;2023-02-28T03:29:43;3.40;99.90
57390;DHT22;43217;52.694;6.214;2023-02-28T03:32:19;3.40;99.90
57390;DHT22;43217;52.694;6.214;2023-02-28T03:35:14;3.40;99.90
57390;DHT22;43217;52.694;6.214;2023-02-28T03:37:49;3.30;99.90
57390;DHT22;43217;52.694;6.214;2023-02-28T03:40:20;3.30;99.90
57390;DHT22;43217;52.694;6.214;2023-02-28T03:42:50;3.30;99.90
57390;DHT22;43217;52.694;6.214;2023-02-28T03:45:21;3.20;99.90
57390;DHT22;43217;52.694;6.214;2023-02-28T03:50:45;3.20;99.90
57390;DHT22;43217;52.694;6.214;2023-02-28T03:55:45;3.20;99.90
57390;DHT22;43217;52.694;6.214;2023-02-28T04:00:53;3.10;99.90
57390;DHT22;43217;52.694;6.214;2023-02-28T04:03:20;3.10;99.90
57390;DHT22;43217;52.694;6.214;2023-02-28T04:05:52;3.10;99.90
57390;DHT22;43217;52.694;6.214;2023-02-28T04:08:18;3.10;99.90
57390;DHT22;43217;52.694;6.214;2023-02-28T04:10:48;3.10;99.90
57390;DHT22;43217;52.694;6.214;2023-02-28T04:13:15;3.00;99.90
57390;DHT22;43217;52.694;6.214;2023-02-28T04:15:40;3.00;99.90
57390;DHT22;43217;52.694;6.214;2023-02-28T04:18:06;3.00;99.90
57390;DHT22;43217;52.694;6.214;2023-02-28T04:20:32;3.00;99.90
57390;DHT22;43217;52.694;6.214;2023-02-28T04:22:57;3.00;99.90
57390;DHT22;43217;52.694;6.214;2023-02-28T04:25:23;3.00;99.90
57390;DHT22;43217;52.694;6.214;2023-02-28T04:27:49;3.00;99.90
57390;DHT22;43217;52.694;6.214;2023-02-28T04:30:15;3.00;99.90
57390;DHT22;43217;52.694;6.214;2023-02-28T04:32:40;3.00;99.90
57390;DHT22;43217;52.694;6.214;2023-02-28T04:35:06;3.00;99.90
57390;DHT22;43217;52.694;6.214;2023-02-28T04:37:32;2.90;99.90
57390;DHT22;43217;52.694;6.214;2023-02-28T04:40:01;3.00;99.90
57390;DHT22;43217;52.694;6.214;2023-02-28T04:42:26;3.00;99.90
57390;DHT22;43217;52.694;6.214;2023-02-28T04:44:52;3.00;99.90
57390;DHT22;43217;52.694;6.214;2023-02-28T04:47:18;3.00;99.90
57390;DHT22;43217;52.694;6.214;2023-02-28T04:49:43;3.00;99.90
57390;DHT22;43217;52.694;6.214;2023-02-28T04:52:09;2.90;99.90
57390;DHT22;43217;52.694;6.214;2023-02-28T04:54:35;2.90;99.90
57390;DHT22;43217;52.694;6.214;2023-02-28T04:57:03;2.90;99.90
57390;DHT22;43217;52.694;6.214;2023-02-28T04:59:29;2.80;99.90
57390;DHT22;43217;52.694;6.214;2023-02-28T05:01:55;2.80;99.90
57390;DHT22;43217;52.694;6.214;2023-02-28T05:04:20;2.80;99.90
57390;DHT22;43217;52.694;6.214;2023-02-28T05:06:46;2.80;99.90
57390;DHT22;43217;52.694;6.214;2023-02-28T05:09:12;2.80;99.90
57390;DHT22;43217;52.694;6.214;2023-02-28T05:11:37;2.80;99.90
57390;DHT22;43217;52.694;6.214;2023-02-28T05:14:08;2.80;99.90
57390;DHT22;43217;52.694;6.214;2023-02-28T05:16:34;2.80;99.90
57390;DHT22;43217;52.694;6.214;2023-02-28T05:19:00;2.80;99.90
57390;DHT22;43217;52.694;6.214;2023-02-28T05:21:31;2.80;99.90
57390;DHT22;43217;52.694;6.214;2023-02-28T05:24:00;2.80;99.90
57390;DHT22;43217;52.694;6.214;2023-02-28T05:26:27;2.70;99.90
57390;DHT22;43217;52.694;6.214;2023-02-28T05:28:53;2.70;99.90
57390;DHT22;43217;52.694;6.214;2023-02-28T05:31:20;2.70;99.90
57390;DHT22;43217;52.694;6.214;2023-02-28T05:33:46;2.60;99.90
57390;DHT22;43217;52.694;6.214;2023-02-28T05:36:12;2.70;99.90
57390;DHT22;43217;52.694;6.214;2023-02-28T05:38:37;2.60;99.90
57390;DHT22;43217;52.694;6.214;2023-02-28T05:41:10;2.70;99.90
57390;DHT22;43217;52.694;6.214;2023-02-28T05:43:36;2.60;99.90
57390;DHT22;43217;52.694;6.214;2023-02-28T05:46:04;2.60;99.90
57390;DHT22;43217;52.694;6.214;2023-02-28T05:48:30;2.70;99.90
57390;DHT22;43217;52.694;6.214;2023-02-28T05:50:57;2.70;99.90
57390;DHT22;43217;52.694;6.214;2023-02-28T05:53:23;2.70;99.90
57390;DHT22;43217;52.694;6.214;2023-02-28T05:55:48;2.70;99.90
57390;DHT22;43217;52.694;6.214;2023-02-28T05:58:14;2.70;99.90
57390;DHT22;43217;52.694;6.214;2023-02-28T06:00:40;2.70;99.90
57390;DHT22;43217;52.694;6.214;2023-02-28T06:03:05;2.70;99.90
57390;DHT22;43217;52.694;6.214;2023-02-28T06:05:31;2.70;99.90
57390;DHT22;43217;52.694;6.214;2023-02-28T06:07:56;2.70;99.90
57390;DHT22;43217;52.694;6.214;2023-02-28T06:10:22;2.60;99.90
57390;DHT22;43217;52.694;6.214;2023-02-28T06:12:47;2.60;99.90
57390;DHT22;43217;52.694;6.214;2023-02-28T06:15:15;2.60;99.90
57390;DHT22;43217;52.694;6.214;2023-02-28T06:17:42;2.60;99.90
57390;DHT22;43217;52.694;6.214;2023-02-28T06:20:09;2.60;99.90
57390;DHT22;43217;52.694;6.214;2023-02-28T06:22:35;2.50;99.90
57390;DHT22;43217;52.694;6.214;2023-02-28T06:25:02;2.50;99.90
57390;DHT22;43217;52.694;6.214;2023-02-28T06:27:28;2.50;99.90
57390;DHT22;43217;52.694;6.214;2023-02-28T06:29:54;2.60;99.90
57390;DHT22;43217;52.694;6.214;2023-02-28T06:32:21;2.60;99.90
57390;DHT22;43217;52.694;6.214;2023-02-28T06:34:47;2.50;99.90
57390;DHT22;43217;52.694;6.214;2023-02-28T06:37:13;2.50;99.90
57390;DHT22;43217;52.694;6.214;2023-02-28T06:39:38;2.50;99.90
57390;DHT22;43217;52.694;6.214;2023-02-28T06:42:05;2.60;99.90
57390;DHT22;43217;52.694;6.214;2023-02-28T06:44:31;2.60;99.90
57390;DHT22;43217;52.694;6.214;2023-02-28T06:47:05;2.60;99.90
57390;DHT22;43217;52.694;6.214;2023-02-28T06:49:33;2.60;99.90
57390;DHT22;43217;52.694;6.214;2023-02-28T06:51:59;2.60;99.90
57390;DHT22;43217;52.694;6.214;2023-02-28T06:54:25;2.60;99.90
57390;DHT22;43217;52.694;6.214;2023-02-28T06:56:50;2.60;99.90
57390;DHT22;43217;52.694;6.214;2023-02-28T06:59:16;2.60;99.90
57390;DHT22;43217;52.694;6.214;2023-02-28T07:01:42;2.60;99.90
57390;DHT22;43217;52.694;6.214;2023-02-28T07:04:08;2.70;99.90
57390;DHT22;43217;52.694;6.214;2023-02-28T07:06:34;2.70;99.90
57390;DHT22;43217;52.694;6.214;2023-02-28T07:08:59;2.70;99.90
57390;DHT22;43217;52.694;6.214;2023-02-28T07:11:26;2.70;99.90
57390;DHT22;43217;52.694;6.214;2023-02-28T07:13:53;2.70;99.90
57390;DHT22;43217;52.694;6.214;2023-02-28T07:16:19;2.70;99.90
57390;DHT22;43217;52.694;6.214;2023-02-28T07:18:45;2.70;99.90
57390;DHT22;43217;52.694;6.214;2023-02-28T07:21:14;2.70;99.90
57390;DHT22;43217;52.694;6.214;2023-02-28T07:23:40;2.70;99.90
57390;DHT22;43217;52.694;6.214;2023-02-28T07:26:10;2.70;99.90
57390;DHT22;43217;52.694;6.214;2023-02-28T07:28:38;2.70;99.90
57390;DHT22;43217;52.694;6.214;2023-02-28T07:31:05;2.70;99.90
57390;DHT22;43217;52.694;6.214;2023-02-28T07:33:32;2.70;99.90
57390;DHT22;43217;52.694;6.214;2023-02-28T07:36:14;2.70;99.90
57390;DHT22;43217;52.694;6.214;2023-02-28T07:38:45;2.80;99.90
57390;DHT22;43217;52.694;6.214;2023-02-28T07:41:14;2.70;99.90
57390;DHT22;43217;52.694;6.214;2023-02-28T07:43:40;2.80;99.90
57390;DHT22;43217;52.694;6.214;2023-02-28T07:46:08;2.80;99.90
57390;DHT22;43217;52.694;6.214;2023-02-28T07:48:34;2.80;99.90
57390;DHT22;43217;52.694;6.214;2023-02-28T07:51:00;2.80;99.90
57390;DHT22;43217;52.694;6.214;2023-02-28T07:53:27;2.90;99.90
57390;DHT22;43217;52.694;6.214;2023-02-28T07:55:57;2.90;99.90
57390;DHT22;43217;52.694;6.214;2023-02-28T07:58:25;2.90;99.90
57390;DHT22;43217;52.694;6.214;2023-02-28T08:00:51;2.90;99.90
57390;DHT22;43217;52.694;6.214;2023-02-28T08:03:18;3.00;99.90
57390;DHT22;43217;52.694;6.214;2023-02-28T08:05:44;3.00;99.90
57390;DHT22;43217;52.694;6.214;2023-02-28T08:08:10;3.00;99.90
57390;DHT22;43217;52.694;6.214;2023-02-28T08:10:36;3.10;99.90
57390;DHT22;43217;52.694;6.214;2023-02-28T08:13:03;3.10;99.90
57390;DHT22;43217;52.694;6.214;2023-02-28T08:15:29;3.10;99.90
57390;DHT22;43217;52.694;6.214;2023-02-28T08:17:54;3.10;99.90
57390;DHT22;43217;52.694;6.214;2023-02-28T08:20:22;3.10;99.90
57390;DHT22;43217;52.694;6.214;2023-02-28T08:22:48;3.10;99.90
57390;DHT22;43217;52.694;6.214;2023-02-28T08:25:14;3.20;99.90
57390;DHT22;43217;52.694;6.214;2023-02-28T08:27:40;3.30;99.90
57390;DHT22;43217;52.694;6.214;2023-02-28T08:30:06;3.40;99.90
57390;DHT22;43217;52.694;6.214;2023-02-28T08:32:32;3.40;99.90
57390;DHT22;43217;52.694;6.214;2023-02-28T08:34:58;3.40;99.90
57390;DHT22;43217;52.694;6.214;2023-02-28T08:37:24;3.50;99.90
57390;DHT22;43217;52.694;6.214;2023-02-28T08:39:50;3.70;99.90
57390;DHT22;43217;52.694;6.214;2023-02-28T08:42:16;3.80;99.90
57390;DHT22;43217;52.694;6.214;2023-02-28T08:44:41;3.90;99.90
57390;DHT22;43217;52.694;6.214;2023-02-28T08:47:07;4.00;99.90
57390;DHT22;43217;52.694;6.214;2023-02-28T08:49:33;4.10;99.90
57390;DHT22;43217;52.694;6.214;2023-02-28T08:51:58;4.20;99.90
57390;DHT22;43217;52.694;6.214;2023-02-28T08:54:24;4.30;99.90
57390;DHT22;43217;52.694;6.214;2023-02-28T08:56:50;4.40;99.90
57390;DHT22;43217;52.694;6.214;2023-02-28T08:59:16;4.40;99.90
57390;DHT22;43217;52.694;6.214;2023-02-28T09:01:42;4.40;99.90
57390;DHT22;43217;52.694;6.214;2023-02-28T09:04:09;4.40;99.90
57390;DHT22;43217;52.694;6.214;2023-02-28T09:06:36;4.40;99.90
57390;DHT22;43217;52.694;6.214;2023-02-28T09:09:02;4.40;99.90
57390;DHT22;43217;52.694;6.214;2023-02-28T09:11:29;4.30;99.90
57390;DHT22;43217;52.694;6.214;2023-02-28T09:13:55;4.40;99.90
57390;DHT22;43217;52.694;6.214;2023-02-28T09:16:21;4.40;99.90
57390;DHT22;43217;52.694;6.214;2023-02-28T09:18:47;4.50;99.90
57390;DHT22;43217;52.694;6.214;2023-02-28T09:21:15;4.50;99.90
57390;DHT22;43217;52.694;6.214;2023-02-28T09:23:45;4.60;99.90
57390;DHT22;43217;52.694;6.214;2023-02-28T09:26:15;4.70;99.90
57390;DHT22;43217;52.694;6.214;2023-02-28T09:28:41;4.70;99.90
57390;DHT22;43217;52.694;6.214;2023-02-28T09:31:10;4.70;99.90
57390;DHT22;43217;52.694;6.214;2023-02-28T09:33:37;4.80;99.90
57390;DHT22;43217;52.694;6.214;2023-02-28T09:36:03;4.80;99.90
57390;DHT22;43217;52.694;6.214;2023-02-28T09:38:29;4.90;99.90
57390;DHT22;43217;52.694;6.214;2023-02-28T09:40:56;4.90;99.90
57390;DHT22;43217;52.694;6.214;2023-02-28T09:43:25;4.90;99.90
57390;DHT22;43217;52.694;6.214;2023-02-28T09:45:59;5.00;99.90
57390;DHT22;43217;52.694;6.214;2023-02-28T09:48:33;5.00;99.90
57390;DHT22;43217;52.694;6.214;2023-02-28T09:51:30;5.00;99.90
57390;DHT22;43217;52.694;6.214;2023-02-28T09:53:58;5.10;99.90
57390;DHT22;43217;52.694;6.214;2023-02-28T09:56:39;5.30;99.90
57390;DHT22;43217;52.694;6.214;2023-02-28T09:59:12;5.30;99.90
57390;DHT22;43217;52.694;6.214;2023-02-28T10:02:19;5.50;99.90
57390;DHT22;43217;52.694;6.214;2023-02-28T10:04:56;5.50;99.90
57390;DHT22;43217;52.694;6.214;2023-02-28T10:08:18;5.60;99.90
57390;DHT22;43217;52.694;6.214;2023-02-28T10:10:51;5.60;99.90
57390;DHT22;43217;52.694;6.214;2023-02-28T10:13:23;5.60;99.90
57390;DHT22;43217;52.694;6.214;2023-02-28T10:15:53;5.60;99.90
57390;DHT22;43217;52.694;6.214;2023-02-28T10:18:24;5.60;99.90
57390;DHT22;43217;52.694;6.214;2023-02-28T10:20:51;5.60;99.90
57390;DHT22;43217;52.694;6.214;2023-02-28T10:23:25;5.70;99.90
57390;DHT22;43217;52.694;6.214;2023-02-28T10:26:01;5.70;99.90
57390;DHT22;43217;52.694;6.214;2023-02-28T10:28:31;5.70;99.90
57390;DHT22;43217;52.694;6.214;2023-02-28T10:30:57;5.70;99.90
57390;DHT22;43217;52.694;6.214;2023-02-28T10:33:28;5.70;99.90
57390;DHT22;43217;52.694;6.214;2023-02-28T10:35:55;5.70;99.90
57390;DHT22;43217;52.694;6.214;2023-02-28T10:38:24;5.70;99.90
57390;DHT22;43217;52.694;6.214;2023-02-28T10:40:51;5.70;99.90
57390;DHT22;43217;52.694;6.214;2023-02-28T10:43:18;5.70;99.90
57390;DHT22;43217;52.694;6.214;2023-02-28T10:45:57;5.70;99.90
57390;DHT22;43217;52.694;6.214;2023-02-28T10:48:30;5.70;99.90
57390;DHT22;43217;52.694;6.214;2023-02-28T10:50:57;5.70;99.90
57390;DHT22;43217;52.694;6.214;2023-02-28T11:03:51;5.80;99.90
57390;DHT22;43217;52.694;6.214;2023-02-28T11:06:23;5.80;99.90
57390;DHT22;43217;52.694;6.214;2023-02-28T11:09:04;5.80;99.90
57390;DHT22;43217;52.694;6.214;2023-02-28T11:11:42;5.80;99.90
57390;DHT22;43217;52.694;6.214;2023-02-28T11:16:46;5.90;99.90
57390;DHT22;43217;52.694;6.214;2023-02-28T11:19:20;5.90;99.90
57390;DHT22;43217;52.694;6.214;2023-02-28T11:21:59;5.80;99.90
57390;DHT22;43217;52.694;6.214;2023-02-28T11:24:40;5.80;99.90
57390;DHT22;43217;52.694;6.214;2023-02-28T11:29:57;5.80;99.90
57390;DHT22;43217;52.694;6.214;2023-02-28T11:32:28;5.90;99.90
57390;DHT22;43217;52.694;6.214;2023-02-28T11:37:37;6.00;99.90
57390;DHT22;43217;52.694;6.214;2023-02-28T11:40:13;6.00;99.90
57390;DHT22;43217;52.694;6.214;2023-02-28T11:43:04;6.00;99.70
57390;DHT22;43217;52.694;6.214;2023-02-28T11:48:38;6.00;99.90
57390;DHT22;43217;52.694;6.214;2023-02-28T11:51:21;6.00;99.90
57390;DHT22;43217;52.694;6.214;2023-02-28T11:57:02;6.00;99.90
57390;DHT22;43217;52.694;6.214;2023-02-28T12:02:45;6.20;99.90
57390;DHT22;43217;52.694;6.214;2023-02-28T12:05:29;6.20;96.90
57390;DHT22;43217;52.694;6.214;2023-02-28T12:11:01;6.10;99.30
57390;DHT22;43217;52.694;6.214;2023-02-28T12:13:55;6.20;99.50
57390;DHT22;43217;52.694;6.214;2023-02-28T12:16:44;6.20;98.10
57390;DHT22;43217;52.694;6.214;2023-02-28T12:22:06;6.30;97.30
57390;DHT22;43217;52.694;6.214;2023-02-28T12:28:15;6.20;98.50
57390;DHT22;43217;52.694;6.214;2023-02-28T12:30:51;6.20;99.50
57390;DHT22;43217;52.694;6.214;2023-02-28T12:33:21;6.20;93.80
57390;DHT22;43217;52.694;6.214;2023-02-28T12:35:56;6.20;96.20
57390;DHT22;43217;52.694;6.214;2023-02-28T12:38:41;6.20;96.10
57390;DHT22;43217;52.694;6.214;2023-02-28T12:43:47;6.30;95.30
57390;DHT22;43217;52.694;6.214;2023-02-28T12:46:30;6.30;93.40
57390;DHT22;43217;52.694;6.214;2023-02-28T12:49:02;6.30;92.10
57390;DHT22;43217;52.694;6.214;2023-02-28T12:51:30;6.30;93.20
57390;DHT22;43217;52.694;6.214;2023-02-28T12:59:49;6.10;92.50
57390;DHT22;43217;52.694;6.214;2023-02-28T13:02:27;6.10;94.30
57390;DHT22;43217;52.694;6.214;2023-02-28T13:10:53;6.20;92.40
57390;DHT22;43217;52.694;6.214;2023-02-28T13:13:24;6.30;92.60
57390;DHT22;43217;52.694;6.214;2023-02-28T13:20:58;6.30;91.40
57390;DHT22;43217;52.694;6.214;2023-02-28T13:26:12;6.30;92.60
57390;DHT22;43217;52.694;6.214;2023-02-28T13:29:41;6.40;93.80
57390;DHT22;43217;52.694;6.214;2023-02-28T13:39:50;6.50;87.60
57390;DHT22;43217;52.694;6.214;2023-02-28T13:42:22;6.50;88.10
57390;DHT22;43217;52.694;6.214;2023-02-28T13:45:22;6.50;90.40
57390;DHT22;43217;52.694;6.214;2023-02-28T13:47:54;6.50;87.20
57390;DHT22;43217;52.694;6.214;2023-02-28T14:01:30;6.50;88.90
57390;DHT22;43217;52.694;6.214;2023-02-28T14:07:00;6.50;90.70
57390;DHT22;43217;52.694;6.214;2023-02-28T14:09:35;6.60;90.60
57390;DHT22;43217;52.694;6.214;2023-02-28T14:15:30;6.60;87.40
57390;DHT22;43217;52.694;6.214;2023-02-28T14:18:13;6.60;82.00
57390;DHT22;43217;52.694;6.214;2023-02-28T14:20:40;6.50;87.60
57390;DHT22;43217;52.694;6.214;2023-02-28T14:23:22;6.50;89.70
57390;DHT22;43217;52.694;6.214;2023-02-28T14:31:17;6.50;85.40
57390;DHT22;43217;52.694;6.214;2023-02-28T14:34:05;6.50;87.30
57390;DHT22;43217;52.694;6.214;2023-02-28T14:36:39;6.50;90.00
57390;DHT22;43217;52.694;6.214;2023-02-28T14:39:17;6.50;90.10
57390;DHT22;43217;52.694;6.214;2023-02-28T14:41:44;6.50;87.00
57390;DHT22;43217;52.694;6.214;2023-02-28T14:44:22;6.50;89.80
57390;DHT22;43217;52.694;6.214;2023-02-28T14:46:50;6.50;90.00
57390;DHT22;43217;52.694;6.214;2023-02-28T14:49:30;6.50;90.90
57390;DHT22;43217;52.694;6.214;2023-02-28T14:54:38;6.60;86.10
57390;DHT22;43217;52.694;6.214;2023-02-28T14:57:04;6.60;88.70
57390;DHT22;43217;52.694;6.214;2023-02-28T14:59:35;6.60;87.80
57390;DHT22;43217;52.694;6.214;2023-02-28T15:02:23;6.60;86.80
57390;DHT22;43217;52.694;6.214;2023-02-28T15:04:54;6.70;85.50
57390;DHT22;43217;52.694;6.214;2023-02-28T15:07:20;6.70;85.10
57390;DHT22;43217;52.694;6.214;2023-02-28T15:10:26;6.70;83.80
57390;DHT22;43217;52.694;6.214;2023-02-28T15:13:01;6.70;82.40
57390;DHT22;43217;52.694;6.214;2023-02-28T15:18:05;6.60;81.60
57390;DHT22;43217;52.694;6.214;2023-02-28T15:20:32;6.70;84.20
57390;DHT22;43217;52.694;6.214;2023-02-28T15:22:58;6.70;83.20
57390;DHT22;43217;52.694;6.214;2023-02-28T15:25:25;6.70;82.50
57390;DHT22;43217;52.694;6.214;2023-02-28T15:27:56;6.60;80.70
57390;DHT22;43217;52.694;6.214;2023-02-28T15:30:28;6.60;80.50
57390;DHT22;43217;52.694;6.214;2023-02-28T15:35:39;6.60;81.50
57390;DHT22;43217;52.694;6.214;2023-02-28T15:38:26;6.60;82.00
57390;DHT22;43217;52.694;6.214;2023-02-28T15:40:57;6.60;82.80
57390;DHT22;43217;52.694;6.214;2023-02-28T15:43:31;6.60;82.40
57390;DHT22;43217;52.694;6.214;2023-02-28T15:46:11;6.50;83.70
57390;DHT22;43217;52.694;6.214;2023-02-28T15:48:52;6.50;83.60
57390;DHT22;43217;52.694;6.214;2023-02-28T15:51:21;6.50;84.50
57390;DHT22;43217;52.694;6.214;2023-02-28T15:53:56;6.50;84.50
57390;DHT22;43217;52.694;6.214;2023-02-28T15:56:31;6.50;85.60
57390;DHT22;43217;52.694;6.214;2023-02-28T15:59:04;6.50;87.60
57390;DHT22;43217;52.694;6.214;2023-02-28T16:01:34;6.40;89.00
57390;DHT22;43217;52.694;6.214;2023-02-28T16:04:06;6.40;90.00
57390;DHT22;43217;52.694;6.214;2023-02-28T16:08:59;6.30;91.30
57390;DHT22;43217;52.694;6.214;2023-02-28T16:11:25;6.30;90.90
57390;DHT22;43217;52.694;6.214;2023-02-28T16:13:52;6.30;91.90
57390;DHT22;43217;52.694;6.214;2023-02-28T16:16:23;6.30;92.70
57390;DHT22;43217;52.694;6.214;2023-02-28T16:18:50;6.30;92.40
57390;DHT22;43217;52.694;6.214;2023-02-28T16:21:16;6.30;92.70
57390;DHT22;43217;52.694;6.214;2023-02-28T16:23:42;6.20;92.80
57390;DHT22;43217;52.694;6.214;2023-02-28T16:26:08;6.20;93.50
57390;DHT22;43217;52.694;6.214;2023-02-28T16:28:37;6.20;94.20
57390;DHT22;43217;52.694;6.214;2023-02-28T16:31:06;6.20;94.10
57390;DHT22;43217;52.694;6.214;2023-02-28T16:33:33;6.20;94.50
57390;DHT22;43217;52.694;6.214;2023-02-28T16:35:59;6.20;95.00
57390;DHT22;43217;52.694;6.214;2023-02-28T16:38:26;6.20;95.20
57390;DHT22;43217;52.694;6.214;2023-02-28T16:40:53;6.10;95.90
57390;DHT22;43217;52.694;6.214;2023-02-28T16:43:23;6.10;96.10
57390;DHT22;43217;52.694;6.214;2023-02-28T16:45:55;6.00;96.60
57390;DHT22;43217;52.694;6.214;2023-02-28T16:48:22;6.00;97.50
57390;DHT22;43217;52.694;6.214;2023-02-28T16:50:47;6.00;98.20
57390;DHT22;43217;52.694;6.214;2023-02-28T16:53:13;5.90;98.90
57390;DHT22;43217;52.694;6.214;2023-02-28T16:55:39;5.90;99.70
57390;DHT22;43217;52.694;6.214;2023-02-28T16:58:05;5.80;99.90
57390;DHT22;43217;52.694;6.214;2023-02-28T17:00:32;5.80;99.90
57390;DHT22;43217;52.694;6.214;2023-02-28T17:02:58;5.70;99.90
57390;DHT22;43217;52.694;6.214;2023-02-28T17:05:25;5.60;99.90
57390;DHT22;43217;52.694;6.214;2023-02-28T17:07:51;5.60;99.90
57390;DHT22;43217;52.694;6.214;2023-02-28T17:10:20;5.50;99.90
57390;DHT22;43217;52.694;6.214;2023-02-28T17:12:47;5.40;99.90
57390;DHT22;43217;52.694;6.214;2023-02-28T17:15:15;5.40;99.90
57390;DHT22;43217;52.694;6.214;2023-02-28T17:17:42;5.30;99.90
57390;DHT22;43217;52.694;6.214;2023-02-28T17:20:28;5.20;99.90
57390;DHT22;43217;52.694;6.214;2023-02-28T17:22:54;5.20;99.90
57390;DHT22;43217;52.694;6.214;2023-02-28T17:25:21;5.10;99.90
57390;DHT22;43217;52.694;6.214;2023-02-28T17:27:47;5.00;99.90
57390;DHT22;43217;52.694;6.214;2023-02-28T17:30:17;5.00;99.90
57390;DHT22;43217;52.694;6.214;2023-02-28T17:32:43;4.90;99.90
57390;DHT22;43217;52.694;6.214;2023-02-28T17:35:09;4.90;99.90
57390;DHT22;43217;52.694;6.214;2023-02-28T17:37:35;4.80;99.90
57390;DHT22;43217;52.694;6.214;2023-02-28T17:40:00;4.80;99.90
57390;DHT22;43217;52.694;6.214;2023-02-28T17:42:26;4.70;99.90
57390;DHT22;43217;52.694;6.214;2023-02-28T17:44:52;4.70;99.90
57390;DHT22;43217;52.694;6.214;2023-02-28T17:47:17;4.60;99.90
57390;DHT22;43217;52.694;6.214;2023-02-28T17:49:44;4.50;99.90
57390;DHT22;43217;52.694;6.214;2023-02-28T17:52:09;4.50;99.90
57390;DHT22;43217;52.694;6.214;2023-02-28T17:54:35;4.50;99.90
57390;DHT22;43217;52.694;6.214;2023-02-28T17:57:01;4.40;99.90
57390;DHT22;43217;52.694;6.214;2023-02-28T17:59:26;4.40;99.90
57390;DHT22;43217;52.694;6.214;2023-02-28T18:01:59;4.30;99.90
57390;DHT22;43217;52.694;6.214;2023-02-28T18:04:25;4.30;99.90
57390;DHT22;43217;52.694;6.214;2023-02-28T18:06:53;4.20;99.90
57390;DHT22;43217;52.694;6.214;2023-02-28T18:09:22;4.10;99.90
57390;DHT22;43217;52.694;6.214;2023-02-28T18:11:52;4.10;99.90
57390;DHT22;43217;52.694;6.214;2023-02-28T18:14:20;4.10;99.90
57390;DHT22;43217;52.694;6.214;2023-02-28T18:16:46;4.00;99.90